sensor_id;sensor_type;location;lat;lon;timestamp;pressure;altitude;pressure_sealevel;temperature;humidity
74680;BME280;63211;48.548;2.704;2023-06-14T00:01:11;100347.16;;;23.92;51.97
74680;BME280;63211;48.548;2.704;2023-06-14T00:03:38;100348.56;;;23.89;52.00
74680;BME280;63211;48.548;2.704;2023-06-14T00:06:05;100352.41;;;23.88;52.08
74680;BME280;63211;48.548;2.704;2023-06-14T00:08:32;100349.66;;;23.88;51.92
74680;BME280;63211;48.548;2.704;2023-06-14T00:11:00;100344.69;;;23.85;51.68
74680;BME280;63211;48.548;2.704;2023-06-14T00:13:26;100349.06;;;23.81;52.21
74680;BME280;63211;48.548;2.704;2023-06-14T00:15:53;100356.53;;;23.86;52.04
74680;BME280;63211;48.548;2.704;2023-06-14T00:18:20;100357.63;;;23.85;51.65
74680;BME280;63211;48.548;2.704;2023-06-14T00:20:50;100335.84;;;23.73;51.64
74680;BME280;63211;48.548;2.704;2023-06-14T00:23:17;100355.97;;;23.84;51.62
74680;BME280;63211;48.548;2.704;2023-06-14T00:25:44;100354.31;;;23.83;51.70
74680;BME280;63211;48.548;2.704;2023-06-14T00:28:11;100357.88;;;23.83;51.68
74680;BME280;63211;48.548;2.704;2023-06-14T00:30:38;100351.00;;;23.81;52.00
74680;BME280;63211;48.548;2.704;2023-06-14T00:33:05;100354.84;;;23.80;52.46
74680;BME280;63211;48.548;2.704;2023-06-14T00:35:31;100352.91;;;23.80;51.92
74680;BME280;63211;48.548;2.704;2023-06-14T00:37:58;100362.25;;;23.79;52.39
74680;BME280;63211;48.548;2.704;2023-06-14T00:40:25;100357.03;;;23.78;51.86
74680;BME280;63211;48.548;2.704;2023-06-14T00:42:51;100358.94;;;23.77;51.89
74680;BME280;63211;48.548;2.704;2023-06-14T00:45:19;100355.66;;;23.75;51.98
74680;BME280;63211;48.548;2.704;2023-06-14T00:47:47;100349.59;;;23.78;51.99
74680;BME280;63211;48.548;2.704;2023-06-14T00:50:16;100358.13;;;23.77;52.24
74680;BME280;63211;48.548;2.704;2023-06-14T00:52:43;100359.50;;;23.74;52.19
74680;BME280;63211;48.548;2.704;2023-06-14T00:55:09;100357.56;;;23.75;51.80
74680;BME280;63211;48.548;2.704;2023-06-14T00:57:36;100364.16;;;23.74;52.19
74680;BME280;63211;48.548;2.704;2023-06-14T01:00:06;100368.28;;;23.71;52.05
74680;BME280;63211;48.548;2.704;2023-06-14T01:02:36;100359.75;;;23.73;51.91
74680;BME280;63211;48.548;2.704;2023-06-14T01:05:03;100365.53;;;23.66;51.95
74680;BME280;63211;48.548;2.704;2023-06-14T01:07:37;100366.34;;;23.72;52.28
74680;BME280;63211;48.548;2.704;2023-06-14T01:10:15;100362.25;;;23.69;52.40
74680;BME280;63211;48.548;2.704;2023-06-14T01:12:52;100365.00;;;23.69;52.33
74680;BME280;63211;48.548;2.704;2023-06-14T01:15:23;100358.63;;;23.63;51.86
74680;BME280;63211;48.548;2.704;2023-06-14T01:17:51;100359.19;;;23.66;52.19
74680;BME280;63211;48.548;2.704;2023-06-14T01:20:19;100355.34;;;23.67;52.20
74680;BME280;63211;48.548;2.704;2023-06-14T01:22:52;100363.59;;;23.67;52.28
74680;BME280;63211;48.548;2.704;2023-06-14T01:25:19;100364.97;;;23.64;52.06
74680;BME280;63211;48.548;2.704;2023-06-14T01:27:48;100356.13;;;23.57;52.33
74680;BME280;63211;48.548;2.704;2023-06-14T01:30:17;100358.38;;;23.65;52.04
74680;BME280;63211;48.548;2.704;2023-06-14T01:32:44;100361.69;;;23.67;52.29
74680;BME280;63211;48.548;2.704;2023-06-14T01:35:11;100357.00;;;23.68;52.40
74680;BME280;63211;48.548;2.704;2023-06-14T01:37:38;100360.59;;;23.73;52.99
74680;BME280;63211;48.548;2.704;2023-06-14T01:40:09;100359.19;;;23.71;52.79
74680;BME280;63211;48.548;2.704;2023-06-14T01:42:38;100357.00;;;23.73;52.77
74680;BME280;63211;48.548;2.704;2023-06-14T01:45:06;100356.19;;;23.77;52.83
74680;BME280;63211;48.548;2.704;2023-06-14T01:47:33;100352.03;;;23.70;53.28
74680;BME280;63211;48.548;2.704;2023-06-14T01:50:01;100369.66;;;23.69;53.47
74680;BME280;63211;48.548;2.704;2023-06-14T01:52:28;100362.25;;;23.69;52.97
74680;BME280;63211;48.548;2.704;2023-06-14T01:54:54;100347.38;;;23.65;53.02
74680;BME280;63211;48.548;2.704;2023-06-14T01:57:23;100355.34;;;23.72;52.96
74680;BME280;63211;48.548;2.704;2023-06-14T01:59:50;100357.84;;;23.68;52.90
74680;BME280;63211;48.548;2.704;2023-06-14T02:02:17;100369.09;;;23.67;52.81
74680;BME280;63211;48.548;2.704;2023-06-14T02:04:43;100354.78;;;23.64;53.12
74680;BME280;63211;48.548;2.704;2023-06-14T02:07:12;100364.13;;;23.63;52.83
74680;BME280;63211;48.548;2.704;2023-06-14T02:09:40;100361.91;;;23.60;53.19
74680;BME280;63211;48.548;2.704;2023-06-14T02:12:07;100368.50;;;23.59;52.77
74680;BME280;63211;48.548;2.704;2023-06-14T02:14:35;100363.84;;;23.60;53.02
74680;BME280;63211;48.548;2.704;2023-06-14T02:17:01;100364.38;;;23.57;53.32
74680;BME280;63211;48.548;2.704;2023-06-14T02:19:28;100362.44;;;23.57;52.84
74680;BME280;63211;48.548;2.704;2023-06-14T02:21:55;100363.81;;;23.55;53.30
74680;BME280;63211;48.548;2.704;2023-06-14T02:24:21;100365.47;;;23.56;52.90
74680;BME280;63211;48.548;2.704;2023-06-14T02:26:48;100356.69;;;23.59;53.08
74680;BME280;63211;48.548;2.704;2023-06-14T02:29:15;100357.75;;;23.53;52.92
74680;BME280;63211;48.548;2.704;2023-06-14T02:31:43;100341.47;;;23.41;52.92
74680;BME280;63211;48.548;2.704;2023-06-14T02:34:12;100363.81;;;23.55;52.91
74680;BME280;63211;48.548;2.704;2023-06-14T02:36:38;100365.72;;;23.54;52.71
74680;BME280;63211;48.548;2.704;2023-06-14T02:39:07;100361.88;;;23.55;53.03
74680;BME280;63211;48.548;2.704;2023-06-14T02:41:34;100363.53;;;23.56;52.99
74680;BME280;63211;48.548;2.704;2023-06-14T02:44:01;100357.50;;;23.54;52.70
74680;BME280;63211;48.548;2.704;2023-06-14T02:46:27;100362.66;;;23.51;53.29
74680;BME280;63211;48.548;2.704;2023-06-14T02:48:56;100362.41;;;23.52;53.33
74680;BME280;63211;48.548;2.704;2023-06-14T02:51:22;100358.84;;;23.52;52.58
74680;BME280;63211;48.548;2.704;2023-06-14T02:53:49;100346.44;;;23.44;53.19
74680;BME280;63211;48.548;2.704;2023-06-14T02:56:16;100365.41;;;23.51;52.72
74680;BME280;63211;48.548;2.704;2023-06-14T02:58:44;100368.47;;;23.54;52.83
74680;BME280;63211;48.548;2.704;2023-06-14T03:01:11;100362.09;;;23.49;52.50
74680;BME280;63211;48.548;2.704;2023-06-14T03:03:39;100368.97;;;23.46;52.78
74680;BME280;63211;48.548;2.704;2023-06-14T03:06:07;100368.72;;;23.48;52.87
74680;BME280;63211;48.548;2.704;2023-06-14T03:08:34;100375.84;;;23.44;52.54
74680;BME280;63211;48.548;2.704;2023-06-14T03:11:04;100377.50;;;23.45;52.76
74680;BME280;63211;48.548;2.704;2023-06-14T03:13:31;100378.31;;;23.45;52.70
74680;BME280;63211;48.548;2.704;2023-06-14T03:15:58;100380.50;;;23.43;52.91
74680;BME280;63211;48.548;2.704;2023-06-14T03:18:26;100376.94;;;23.43;52.76
74680;BME280;63211;48.548;2.704;2023-06-14T03:20:52;100370.88;;;23.41;52.86
74680;BME280;63211;48.548;2.704;2023-06-14T03:23:20;100389.28;;;23.40;52.94
74680;BME280;63211;48.548;2.704;2023-06-14T03:25:47;100390.66;;;23.43;52.84
74680;BME280;63211;48.548;2.704;2023-06-14T03:28:14;100401.09;;;23.41;53.16
74680;BME280;63211;48.548;2.704;2023-06-14T03:30:40;100413.75;;;23.42;52.89
74680;BME280;63211;48.548;2.704;2023-06-14T03:33:07;100410.69;;;23.38;52.60
74680;BME280;63211;48.548;2.704;2023-06-14T03:35:33;100418.06;;;23.33;53.13
74680;BME280;63211;48.548;2.704;2023-06-14T03:38:00;100416.19;;;23.38;52.80
74680;BME280;63211;48.548;2.704;2023-06-14T03:40:29;100413.97;;;23.35;53.17
74680;BME280;63211;48.548;2.704;2023-06-14T03:42:56;100415.34;;;23.38;52.70
74680;BME280;63211;48.548;2.704;2023-06-14T03:45:23;100417.28;;;23.37;52.63
74680;BME280;63211;48.548;2.704;2023-06-14T03:47:49;100413.91;;;23.30;52.88
74680;BME280;63211;48.548;2.704;2023-06-14T03:50:17;100413.13;;;23.35;52.57
74680;BME280;63211;48.548;2.704;2023-06-14T03:52:43;100425.22;;;23.34;53.22
74680;BME280;63211;48.548;2.704;2023-06-14T03:55:10;100424.66;;;23.31;52.97
74680;BME280;63211;48.548;2.704;2023-06-14T03:57:39;100426.56;;;23.31;53.24
74680;BME280;63211;48.548;2.704;2023-06-14T04:00:08;100430.66;;;23.28;52.86
74680;BME280;63211;48.548;2.704;2023-06-14T04:02:35;100427.09;;;23.28;52.79
74680;BME280;63211;48.548;2.704;2023-06-14T04:05:02;100427.41;;;23.31;52.76
74680;BME280;63211;48.548;2.704;2023-06-14T04:07:30;100433.16;;;23.30;52.66
74680;BME280;63211;48.548;2.704;2023-06-14T04:09:57;100429.84;;;23.28;53.11
74680;BME280;63211;48.548;2.704;2023-06-14T04:12:23;100433.97;;;23.25;52.71
74680;BME280;63211;48.548;2.704;2023-06-14T04:14:51;100438.63;;;23.25;52.71
74680;BME280;63211;48.548;2.704;2023-06-14T04:17:18;100436.41;;;23.22;53.08
74680;BME280;63211;48.548;2.704;2023-06-14T04:19:44;100434.50;;;23.22;53.17
74680;BME280;63211;48.548;2.704;2023-06-14T04:22:12;100433.41;;;23.23;53.17
74680;BME280;63211;48.548;2.704;2023-06-14T04:24:39;100442.47;;;23.24;53.25
74680;BME280;63211;48.548;2.704;2023-06-14T04:27:07;100452.31;;;23.20;53.42
74680;BME280;63211;48.548;2.704;2023-06-14T04:29:34;100446.25;;;23.18;52.95
74680;BME280;63211;48.548;2.704;2023-06-14T04:32:02;100450.41;;;23.20;52.80
74680;BME280;63211;48.548;2.704;2023-06-14T04:34:29;100462.22;;;23.21;53.41
74680;BME280;63211;48.548;2.704;2023-06-14T04:36:57;100459.75;;;23.19;53.21
74680;BME280;63211;48.548;2.704;2023-06-14T04:39:25;100451.50;;;23.19;53.30
74680;BME280;63211;48.548;2.704;2023-06-14T04:41:53;100451.75;;;23.18;53.11
74680;BME280;63211;48.548;2.704;2023-06-14T04:44:22;100457.50;;;23.16;53.00
74680;BME280;63211;48.548;2.704;2023-06-14T04:46:55;100459.16;;;23.17;53.26
74680;BME280;63211;48.548;2.704;2023-06-14T04:49:25;100465.75;;;23.16;53.38
74680;BME280;63211;48.548;2.704;2023-06-14T04:51:52;100458.59;;;23.15;53.11
74680;BME280;63211;48.548;2.704;2023-06-14T04:54:23;100446.53;;;23.16;53.32
74680;BME280;63211;48.548;2.704;2023-06-14T04:56:50;100464.94;;;23.16;52.82
74680;BME280;63211;48.548;2.704;2023-06-14T04:59:17;100467.66;;;23.16;53.19
74680;BME280;63211;48.548;2.704;2023-06-14T05:01:43;100468.75;;;23.15;53.17
74680;BME280;63211;48.548;2.704;2023-06-14T05:04:13;100464.94;;;23.16;53.02
74680;BME280;63211;48.548;2.704;2023-06-14T05:06:41;100467.94;;;23.14;53.46
74680;BME280;63211;48.548;2.704;2023-06-14T05:09:10;100474.25;;;23.15;53.24
74680;BME280;63211;48.548;2.704;2023-06-14T05:11:36;100481.41;;;23.16;53.30
74680;BME280;63211;48.548;2.704;2023-06-14T05:14:03;100475.91;;;23.16;53.22
74680;BME280;63211;48.548;2.704;2023-06-14T05:16:29;100473.44;;;23.14;53.30
74680;BME280;63211;48.548;2.704;2023-06-14T05:18:56;100476.44;;;23.13;53.32
74680;BME280;63211;48.548;2.704;2023-06-14T05:21:23;100482.50;;;23.15;53.33
74680;BME280;63211;48.548;2.704;2023-06-14T05:23:51;100477.81;;;23.15;53.49
74680;BME280;63211;48.548;2.704;2023-06-14T05:26:19;100477.00;;;23.15;53.64
74680;BME280;63211;48.548;2.704;2023-06-14T05:28:46;100483.31;;;23.15;53.26
74680;BME280;63211;48.548;2.704;2023-06-14T05:31:12;100486.06;;;23.15;53.22
74680;BME280;63211;48.548;2.704;2023-06-14T05:33:39;100487.97;;;23.15;53.42
74680;BME280;63211;48.548;2.704;2023-06-14T05:36:05;100491.78;;;23.09;53.75
74680;BME280;63211;48.548;2.704;2023-06-14T05:38:32;100483.00;;;23.07;53.23
74680;BME280;63211;48.548;2.704;2023-06-14T05:41:00;100487.09;;;23.09;53.47
74680;BME280;63211;48.548;2.704;2023-06-14T05:43:27;100485.44;;;23.08;52.54
74680;BME280;63211;48.548;2.704;2023-06-14T05:45:53;100488.47;;;23.07;52.74
74680;BME280;63211;48.548;2.704;2023-06-14T05:48:20;100492.84;;;23.08;52.57
74680;BME280;63211;48.548;2.704;2023-06-14T05:50:47;100488.75;;;23.05;52.70
74680;BME280;63211;48.548;2.704;2023-06-14T05:53:13;100486.81;;;23.06;52.10
74680;BME280;63211;48.548;2.704;2023-06-14T05:55:40;100489.56;;;23.06;52.44
74680;BME280;63211;48.548;2.704;2023-06-14T05:58:08;100489.28;;;23.07;52.76
74680;BME280;63211;48.548;2.704;2023-06-14T06:00:36;100492.03;;;23.07;51.85
74680;BME280;63211;48.548;2.704;2023-06-14T06:03:02;100495.59;;;23.08;52.10
74680;BME280;63211;48.548;2.704;2023-06-14T06:05:29;100497.81;;;23.06;52.44
74680;BME280;63211;48.548;2.704;2023-06-14T06:07:55;100497.25;;;23.09;52.93
74680;BME280;63211;48.548;2.704;2023-06-14T06:10:22;100494.97;;;23.27;51.93
74680;BME280;63211;48.548;2.704;2023-06-14T06:12:49;100498.50;;;23.28;50.90
74680;BME280;63211;48.548;2.704;2023-06-14T06:15:18;100502.50;;;23.10;47.84
74680;BME280;63211;48.548;2.704;2023-06-14T06:17:46;100498.63;;;23.06;48.57
74680;BME280;63211;48.548;2.704;2023-06-14T06:20:12;100504.66;;;23.08;48.02
74680;BME280;63211;48.548;2.704;2023-06-14T06:22:39;100513.19;;;23.07;47.80
74680;BME280;63211;48.548;2.704;2023-06-14T06:25:07;100513.72;;;23.04;47.74
74680;BME280;63211;48.548;2.704;2023-06-14T06:27:34;100512.09;;;23.08;46.85
74680;BME280;63211;48.548;2.704;2023-06-14T06:30:01;100513.22;;;23.12;47.28
74680;BME280;63211;48.548;2.704;2023-06-14T06:32:29;100510.53;;;23.17;47.09
74680;BME280;63211;48.548;2.704;2023-06-14T06:34:55;100517.41;;;23.19;47.32
74680;BME280;63211;48.548;2.704;2023-06-14T06:37:22;100522.09;;;23.19;47.00
74680;BME280;63211;48.548;2.704;2023-06-14T06:39:48;100525.41;;;23.21;47.36
74680;BME280;63211;48.548;2.704;2023-06-14T06:42:15;100517.16;;;23.21;46.64
74680;BME280;63211;48.548;2.704;2023-06-14T06:44:42;100526.81;;;23.28;47.04
74680;BME280;63211;48.548;2.704;2023-06-14T06:47:08;100519.97;;;23.31;46.62
74680;BME280;63211;48.548;2.704;2023-06-14T06:49:38;100524.63;;;23.30;46.94
74680;BME280;63211;48.548;2.704;2023-06-14T06:52:06;100526.91;;;23.39;47.16
74680;BME280;63211;48.548;2.704;2023-06-14T06:54:33;100527.75;;;23.39;46.78
74680;BME280;63211;48.548;2.704;2023-06-14T06:57:00;100524.47;;;23.42;47.18
74680;BME280;63211;48.548;2.704;2023-06-14T06:59:27;100527.53;;;23.46;46.78
74680;BME280;63211;48.548;2.704;2023-06-14T07:01:54;100530.53;;;23.49;46.43
74680;BME280;63211;48.548;2.704;2023-06-14T07:04:20;100527.53;;;23.51;47.35
74680;BME280;63211;48.548;2.704;2023-06-14T07:06:48;100536.72;;;23.61;48.07
74680;BME280;63211;48.548;2.704;2023-06-14T07:09:15;100508.94;;;23.58;47.51
74680;BME280;63211;48.548;2.704;2023-06-14T07:11:43;100532.16;;;23.77;47.89
74680;BME280;63211;48.548;2.704;2023-06-14T07:14:10;100536.81;;;23.77;46.98
74680;BME280;63211;48.548;2.704;2023-06-14T07:16:37;100541.22;;;23.78;47.70
74680;BME280;63211;48.548;2.704;2023-06-14T07:19:03;100548.94;;;23.81;47.97
74680;BME280;63211;48.548;2.704;2023-06-14T07:21:30;100543.38;;;23.71;47.84
74680;BME280;63211;48.548;2.704;2023-06-14T07:23:58;100551.06;;;23.69;48.21
74680;BME280;63211;48.548;2.704;2023-06-14T07:26:25;100548.88;;;23.71;48.28
74680;BME280;63211;48.548;2.704;2023-06-14T07:28:51;100548.59;;;23.72;47.75
74680;BME280;63211;48.548;2.704;2023-06-14T07:31:18;100553.84;;;23.74;47.06
74680;BME280;63211;48.548;2.704;2023-06-14T07:33:45;100558.81;;;23.77;47.84
74680;BME280;63211;48.548;2.704;2023-06-14T07:36:12;100555.22;;;23.76;47.66
74680;BME280;63211;48.548;2.704;2023-06-14T07:38:38;100560.47;;;23.78;47.29
74680;BME280;63211;48.548;2.704;2023-06-14T07:41:07;100559.94;;;23.81;47.53
74680;BME280;63211;48.548;2.704;2023-06-14T07:43:33;100564.91;;;23.84;46.99
74680;BME280;63211;48.548;2.704;2023-06-14T07:46:00;100566.03;;;23.88;46.47
74680;BME280;63211;48.548;2.704;2023-06-14T07:48:27;100566.31;;;23.91;46.86
74680;BME280;63211;48.548;2.704;2023-06-14T07:50:54;100567.16;;;23.92;46.28
74680;BME280;63211;48.548;2.704;2023-06-14T07:53:21;100567.44;;;23.95;46.35
74680;BME280;63211;48.548;2.704;2023-06-14T07:55:47;100573.78;;;23.96;46.44
74680;BME280;63211;48.548;2.704;2023-06-14T07:58:15;100580.41;;;24.00;45.85
74680;BME280;63211;48.548;2.704;2023-06-14T08:00:42;100581.53;;;24.04;46.82
74680;BME280;63211;48.548;2.704;2023-06-14T08:03:08;100582.38;;;24.05;46.26
74680;BME280;63211;48.548;2.704;2023-06-14T08:05:35;100584.03;;;24.06;46.02
74680;BME280;63211;48.548;2.704;2023-06-14T08:08:01;100585.69;;;24.07;46.32
74680;BME280;63211;48.548;2.704;2023-06-14T08:10:28;100585.97;;;24.10;46.94
74680;BME280;63211;48.548;2.704;2023-06-14T08:12:55;100595.31;;;24.09;46.23
74680;BME280;63211;48.548;2.704;2023-06-14T08:15:23;100587.91;;;24.10;46.46
74680;BME280;63211;48.548;2.704;2023-06-14T08:17:49;100586.50;;;24.12;46.67
74680;BME280;63211;48.548;2.704;2023-06-14T08:20:16;100592.31;;;24.11;46.63
74680;BME280;63211;48.548;2.704;2023-06-14T08:22:43;100588.16;;;24.13;46.54
74680;BME280;63211;48.548;2.704;2023-06-14T08:25:11;100588.16;;;24.13;46.39
74680;BME280;63211;48.548;2.704;2023-06-14T08:27:38;100592.06;;;24.17;46.52
74680;BME280;63211;48.548;2.704;2023-06-14T08:30:07;100590.41;;;24.16;46.73
74680;BME280;63211;48.548;2.704;2023-06-14T08:32:35;100590.13;;;24.18;46.88
74680;BME280;63211;48.548;2.704;2023-06-14T08:35:02;100584.94;;;24.21;46.92
74680;BME280;63211;48.548;2.704;2023-06-14T08:37:28;100589.09;;;24.24;47.08
74680;BME280;63211;48.548;2.704;2023-06-14T08:39:55;100583.59;;;24.24;46.70
74680;BME280;63211;48.548;2.704;2023-06-14T08:42:24;100588.84;;;24.25;46.51
74680;BME280;63211;48.548;2.704;2023-06-14T08:44:50;100590.50;;;24.26;46.94
74680;BME280;63211;48.548;2.704;2023-06-14T08:47:17;100585.81;;;24.27;46.74
74680;BME280;63211;48.548;2.704;2023-06-14T08:49:47;100587.75;;;24.26;46.96
74680;BME280;63211;48.548;2.704;2023-06-14T08:52:18;100590.50;;;24.26;46.53
74680;BME280;63211;48.548;2.704;2023-06-14T08:54:46;100590.50;;;24.26;46.39
74680;BME280;63211;48.548;2.704;2023-06-14T08:57:14;100599.31;;;24.28;46.43
74680;BME280;63211;48.548;2.704;2023-06-14T08:59:46;100594.63;;;24.29;46.57
74680;BME280;63211;48.548;2.704;2023-06-14T09:02:14;100598.75;;;24.26;46.49
74680;BME280;63211;48.548;2.704;2023-06-14T09:04:43;100599.56;;;24.27;46.49
74680;BME280;63211;48.548;2.704;2023-06-14T09:07:11;100597.94;;;24.31;46.50
74680;BME280;63211;48.548;2.704;2023-06-14T09:09:39;100598.47;;;24.33;46.17
74680;BME280;63211;48.548;2.704;2023-06-14T09:12:07;100590.53;;;24.31;46.43
74680;BME280;63211;48.548;2.704;2023-06-14T09:14:35;100600.41;;;24.32;46.65
74680;BME280;63211;48.548;2.704;2023-06-14T09:17:04;100599.31;;;24.33;46.68
74680;BME280;63211;48.548;2.704;2023-06-14T09:19:30;100595.47;;;24.29;46.24
74680;BME280;63211;48.548;2.704;2023-06-14T09:21:57;100595.72;;;24.28;46.83
74680;BME280;63211;48.548;2.704;2023-06-14T09:24:25;100601.22;;;24.28;46.53
74680;BME280;63211;48.548;2.704;2023-06-14T09:26:53;100598.22;;;24.29;46.68
74680;BME280;63211;48.548;2.704;2023-06-14T09:29:20;100595.78;;;24.43;47.52
74680;BME280;63211;48.548;2.704;2023-06-14T09:31:47;100601.88;;;24.55;46.78
74680;BME280;63211;48.548;2.704;2023-06-14T09:34:15;100595.31;;;24.61;47.28
74680;BME280;63211;48.548;2.704;2023-06-14T09:36:43;100595.91;;;24.69;47.22
74680;BME280;63211;48.548;2.704;2023-06-14T09:39:10;100603.88;;;24.65;46.64
74680;BME280;63211;48.548;2.704;2023-06-14T09:41:39;100611.84;;;24.61;47.22
74680;BME280;63211;48.548;2.704;2023-06-14T09:44:08;100615.69;;;24.60;47.14
74680;BME280;63211;48.548;2.704;2023-06-14T09:46:36;100616.78;;;24.59;47.45
74680;BME280;63211;48.548;2.704;2023-06-14T09:49:04;100616.50;;;24.61;47.59
74680;BME280;63211;48.548;2.704;2023-06-14T09:51:31;100619.00;;;24.62;46.72
74680;BME280;63211;48.548;2.704;2023-06-14T09:54:00;100611.84;;;24.61;47.03
74680;BME280;63211;48.548;2.704;2023-06-14T09:56:31;100624.78;;;24.66;47.16
74680;BME280;63211;48.548;2.704;2023-06-14T09:59:01;100620.13;;;24.66;46.76
74680;BME280;63211;48.548;2.704;2023-06-14T10:01:31;100613.75;;;24.61;47.00
74680;BME280;63211;48.548;2.704;2023-06-14T10:04:02;100618.72;;;24.64;47.33
74680;BME280;63211;48.548;2.704;2023-06-14T10:06:29;100622.03;;;24.66;47.57
74680;BME280;63211;48.548;2.704;2023-06-14T10:08:58;100626.97;;;24.64;46.86
74680;BME280;63211;48.548;2.704;2023-06-14T10:11:26;100624.22;;;24.64;47.11
74680;BME280;63211;48.548;2.704;2023-06-14T10:13:53;100589.19;;;24.44;47.22
74680;BME280;63211;48.548;2.704;2023-06-14T10:16:26;100626.72;;;24.65;46.60
74680;BME280;63211;48.548;2.704;2023-06-14T10:19:06;100612.38;;;24.63;46.82
74680;BME280;63211;48.548;2.704;2023-06-14T10:21:42;100621.75;;;24.62;46.49
74680;BME280;63211;48.548;2.704;2023-06-14T10:24:13;100614.03;;;24.64;46.88
74680;BME280;63211;48.548;2.704;2023-06-14T10:26:50;100615.97;;;24.64;46.95
74680;BME280;63211;48.548;2.704;2023-06-14T10:29:17;100601.66;;;24.67;47.55
74680;BME280;63211;48.548;2.704;2023-06-14T10:31:47;100608.28;;;24.66;46.96
74680;BME280;63211;48.548;2.704;2023-06-14T10:34:22;100606.63;;;24.65;46.70
74680;BME280;63211;48.548;2.704;2023-06-14T10:37:00;100605.81;;;24.70;46.61
74680;BME280;63211;48.548;2.704;2023-06-14T10:39:28;100601.41;;;24.69;47.37
74680;BME280;63211;48.548;2.704;2023-06-14T10:41:56;100598.09;;;24.66;46.58
74680;BME280;63211;48.548;2.704;2023-06-14T10:44:43;100606.09;;;24.68;47.05
74680;BME280;63211;48.548;2.704;2023-06-14T10:47:21;100598.66;;;24.69;46.95
74680;BME280;63211;48.548;2.704;2023-06-14T10:49:51;100601.97;;;24.71;47.09
74680;BME280;63211;48.548;2.704;2023-06-14T10:52:21;100589.22;;;24.54;47.55
74680;BME280;63211;48.548;2.704;2023-06-14T10:55:09;100611.59;;;24.68;47.53
74680;BME280;63211;48.548;2.704;2023-06-14T10:57:37;100604.69;;;24.65;46.24
74680;BME280;63211;48.548;2.704;2023-06-14T11:00:05;100589.84;;;24.66;46.57
74680;BME280;63211;48.548;2.704;2023-06-14T11:02:51;100592.03;;;24.64;46.87
74680;BME280;63211;48.548;2.704;2023-06-14T11:05:24;100591.47;;;24.62;46.49
74680;BME280;63211;48.548;2.704;2023-06-14T11:08:09;100582.66;;;24.60;46.38
74680;BME280;63211;48.548;2.704;2023-06-14T11:10:42;100599.44;;;24.59;46.28
74680;BME280;63211;48.548;2.704;2023-06-14T11:13:11;100593.91;;;24.54;47.05
74680;BME280;63211;48.548;2.704;2023-06-14T11:15:38;100607.41;;;24.60;46.88
74680;BME280;63211;48.548;2.704;2023-06-14T11:18:12;100596.66;;;24.54;45.99
74680;BME280;63211;48.548;2.704;2023-06-14T11:20:39;100590.31;;;24.53;46.92
74680;BME280;63211;48.548;2.704;2023-06-14T11:23:06;100588.13;;;24.55;47.07
74680;BME280;63211;48.548;2.704;2023-06-14T11:25:33;100588.16;;;24.60;47.14
74680;BME280;63211;48.548;2.704;2023-06-14T11:28:00;100590.06;;;24.60;47.08
74680;BME280;63211;48.548;2.704;2023-06-14T11:30:26;100591.44;;;24.57;46.72
74680;BME280;63211;48.548;2.704;2023-06-14T11:32:54;100587.63;;;24.63;47.22
74680;BME280;63211;48.548;2.704;2023-06-14T11:35:23;100582.94;;;24.64;47.52
74680;BME280;63211;48.548;2.704;2023-06-14T11:37:52;100580.47;;;24.67;47.69
74680;BME280;63211;48.548;2.704;2023-06-14T11:40:23;100572.22;;;24.67;47.31
74680;BME280;63211;48.548;2.704;2023-06-14T11:42:53;100569.47;;;24.67;47.62
74680;BME280;63211;48.548;2.704;2023-06-14T11:45:24;100568.06;;;24.60;47.80
74680;BME280;63211;48.548;2.704;2023-06-14T11:47:51;100581.28;;;24.63;47.82
74680;BME280;63211;48.548;2.704;2023-06-14T11:50:17;100581.00;;;24.64;48.10
74680;BME280;63211;48.548;2.704;2023-06-14T11:52:52;100576.06;;;24.66;48.21
74680;BME280;63211;48.548;2.704;2023-06-14T11:55:19;100576.06;;;24.66;48.50
74680;BME280;63211;48.548;2.704;2023-06-14T11:57:46;100571.38;;;24.67;47.95
74680;BME280;63211;48.548;2.704;2023-06-14T12:00:14;100577.16;;;24.65;48.19
74680;BME280;63211;48.548;2.704;2023-06-14T12:02:42;100575.50;;;24.64;48.43
74680;BME280;63211;48.548;2.704;2023-06-14T12:05:09;100565.63;;;24.69;48.25
74680;BME280;63211;48.548;2.704;2023-06-14T12:07:36;100569.19;;;24.74;48.52
74680;BME280;63211;48.548;2.704;2023-06-14T12:10:07;100563.69;;;24.74;48.11
74680;BME280;63211;48.548;2.704;2023-06-14T12:12:36;100564.50;;;24.75;48.50
74680;BME280;63211;48.548;2.704;2023-06-14T12:15:04;100573.59;;;24.75;48.53
74680;BME280;63211;48.548;2.704;2023-06-14T12:17:32;100572.50;;;24.76;48.35
74680;BME280;63211;48.548;2.704;2023-06-14T12:20:05;100570.31;;;24.78;48.09
74680;BME280;63211;48.548;2.704;2023-06-14T12:22:33;100567.00;;;24.76;48.08
74680;BME280;63211;48.548;2.704;2023-06-14T12:25:00;100576.91;;;24.77;48.36
74680;BME280;63211;48.548;2.704;2023-06-14T12:27:30;100566.16;;;24.76;48.52
74680;BME280;63211;48.548;2.704;2023-06-14T12:30:00;100565.34;;;24.75;48.92
74680;BME280;63211;48.548;2.704;2023-06-14T12:32:28;100561.75;;;24.75;48.42
74680;BME280;63211;48.548;2.704;2023-06-14T12:34:54;100544.66;;;24.62;48.30
74680;BME280;63211;48.548;2.704;2023-06-14T12:37:21;100565.06;;;24.77;48.62
74680;BME280;63211;48.548;2.704;2023-06-14T12:39:48;100561.22;;;24.78;48.56
74680;BME280;63211;48.548;2.704;2023-06-14T12:42:16;100562.59;;;24.75;48.74
74680;BME280;63211;48.548;2.704;2023-06-14T12:44:44;100568.66;;;24.77;48.70
74680;BME280;63211;48.548;2.704;2023-06-14T12:47:10;100563.97;;;24.78;48.36
74680;BME280;63211;48.548;2.704;2023-06-14T12:49:38;100567.00;;;24.76;48.52
74680;BME280;63211;48.548;2.704;2023-06-14T12:52:07;100568.91;;;24.76;48.59
74680;BME280;63211;48.548;2.704;2023-06-14T12:54:34;100572.50;;;24.76;48.75